Time,TemperatureF,DewpointF,PressureIn,WindDirection,WindDirectionDegrees,WindSpeedMPH,WindSpeedGustMPH,Humidity,HourlyPrecipIn,Conditions,Clouds,dailyrainin,SoftwareType,DateUTC
2013-02-06 00:01:00,40.6,17.6,17.72,NW,310,0.0,0.0,39,0.00,,,0.00,WeatherTracker,2013-02-06 08:01:00,
2013-02-06 00:06:00,40.6,17.6,17.72,NW,310,0.0,0.0,39,0.00,,,0.00,WeatherTracker,2013-02-06 08:06:00,
2013-02-06 00:11:00,40.6,17.6,17.72,NW,310,0.0,0.0,39,0.00,,,0.00,WeatherTracker,2013-02-06 08:11:00,
2013-02-06 00:16:00,41.0,18.0,17.72,NW,310,0.0,0.0,39,0.00,,,0.00,WeatherTracker,2013-02-06 08:16:00,
2013-02-06 00:21:00,41.2,17.5,17.72,NW,310,0.0,0.0,38,0.00,,,0.00,WeatherTracker,2013-02-06 08:21:00,
2013-02-06 00:26:00,41.2,18.1,17.72,NW,310,0.0,0.0,39,0.00,,,0.00,WeatherTracker,2013-02-06 08:26:00,
2013-02-06 00:31:00,41.4,18.3,17.72,NW,310,0.0,0.0,39,0.00,,,0.00,WeatherTracker,2013-02-06 08:31:00,
2013-02-06 00:36:00,41.4,18.3,17.72,NW,310,0.0,0.0,39,0.00,,,0.00,WeatherTracker,2013-02-06 08:36:00,
2013-02-06 00:41:00,41.4,18.3,17.72,NW,310,0.0,0.0,39,0.00,,,0.00,WeatherTracker,2013-02-06 08:41:00,
2013-02-06 00:46:00,41.2,18.1,17.72,NW,310,0.0,0.0,39,0.00,,,0.00,WeatherTracker,2013-02-06 08:46:00,
2013-02-06 00:51:00,41.4,17.7,17.72,NW,310,0.0,0.0,38,0.00,,,0.00,WeatherTracker,2013-02-06 08:51:00,
2013-02-06 00:56:00,41.5,17.8,17.72,NW,310,0.0,0.0,38,0.00,,,0.00,WeatherTracker,2013-02-06 08:56:00,
2013-02-06 01:01:00,41.7,18.0,17.72,NW,310,0.0,0.0,38,0.00,,,0.00,WeatherTracker,2013-02-06 09:01:00,
2013-02-06 01:06:00,41.9,18.2,17.72,NW,310,0.0,0.0,38,0.00,,,0.00,WeatherTracker,2013-02-06 09:06:00,
2013-02-06 01:11:00,42.1,18.3,17.72,NW,310,0.0,0.0,38,0.00,,,0.00,WeatherTracker,2013-02-06 09:11:00,
2013-02-06 01:16:00,42.1,18.3,17.72,NW,310,0.0,0.0,38,0.00,,,0.00,WeatherTracker,2013-02-06 09:16:00,
2013-02-06 01:21:00,42.3,18.5,17.72,NW,310,0.0,0.0,38,0.00,,,0.00,WeatherTracker,2013-02-06 09:21:00,
2013-02-06 01:26:00,42.4,19.3,17.72,NW,320,0.0,0.0,39,0.00,,,0.00,WeatherTracker,2013-02-06 09:26:00,
2013-02-06 01:31:00,42.6,19.4,17.72,NW,320,0.0,0.0,39,0.00,,,0.00,WeatherTracker,2013-02-06 09:31:00,
2013-02-06 01:36:00,42.8,19.0,17.72,NW,305,3.0,3.0,38,0.00,,,0.00,WeatherTracker,2013-02-06 09:36:00,
2013-02-06 01:41:00,43.0,19.1,17.72,NW,305,0.0,0.0,38,0.00,,,0.00,WeatherTracker,2013-02-06 09:41:00,
2013-02-06 01:46:00,43.0,19.1,17.72,NW,305,0.0,0.0,38,0.00,,,0.00,WeatherTracker,2013-02-06 09:46:00,
2013-02-06 01:51:00,42.8,19.0,17.72,NW,305,0.0,0.0,38,0.00,,,0.00,WeatherTracker,2013-02-06 09:51:00,
2013-02-06 01:56:00,43.0,19.1,17.72,NW,305,3.0,0.0,38,0.00,,,0.00,WeatherTracker,2013-02-06 09:56:00,
2013-02-06 02:01:00,43.0,19.1,17.72,West,276,3.0,3.0,38,0.00,,,0.00,WeatherTracker,2013-02-06 10:01:00,
2013-02-06 02:06:00,43.2,19.3,17.72,West,266,4.0,4.0,38,0.00,,,0.00,WeatherTracker,2013-02-06 10:06:00,
2013-02-06 02:11:00,43.5,19.0,17.72,West,260,0.0,0.0,37,0.00,,,0.00,WeatherTracker,2013-02-06 10:11:00,
2013-02-06 02:16:00,43.9,18.0,17.72,West,260,0.0,0.0,35,0.00,,,0.00,WeatherTracker,2013-02-06 10:16:00,
2013-02-06 02:21:00,44.2,18.3,17.72,West,261,0.0,0.0,35,0.00,,,0.00,WeatherTracker,2013-02-06 10:21:00,
2013-02-06 02:26:00,44.2,17.7,17.72,WNW,300,2.0,3.0,34,0.00,,,0.00,WeatherTracker,2013-02-06 10:26:00,
2013-02-06 02:31:00,44.2,17.7,17.72,WNW,300,2.0,4.0,34,0.00,,,0.00,WeatherTracker,2013-02-06 10:31:00,
2013-02-06 02:36:00,44.4,17.8,17.72,WNW,300,0.0,2.0,34,0.00,,,0.00,WeatherTracker,2013-02-06 10:36:00,
2013-02-06 02:41:00,44.4,17.8,17.72,WNW,300,3.0,3.0,34,0.00,,,0.00,WeatherTracker,2013-02-06 10:41:00,
2013-02-06 02:46:00,44.6,18.0,17.72,WNW,300,0.0,4.0,34,0.00,,,0.00,WeatherTracker,2013-02-06 10:46:00,
2013-02-06 02:51:00,44.6,18.0,17.72,WNW,300,3.0,3.0,34,0.00,,,0.00,WeatherTracker,2013-02-06 10:51:00,
2013-02-06 02:56:00,44.8,18.1,17.72,WNW,300,0.0,0.0,34,0.00,,,0.00,WeatherTracker,2013-02-06 10:56:00,
2013-02-06 03:01:00,44.8,18.1,17.72,WNW,300,0.0,3.0,34,0.00,,,0.00,WeatherTracker,2013-02-06 11:01:00,
2013-02-06 03:06:00,44.6,18.0,17.72,WNW,300,0.0,0.0,34,0.00,,,0.00,WeatherTracker,2013-02-06 11:06:00,
2013-02-06 03:11:00,44.6,18.0,17.72,WNW,300,0.0,0.0,34,0.00,,,0.00,WeatherTracker,2013-02-06 11:11:00,
2013-02-06 03:16:00,44.2,18.3,17.72,WNW,300,0.0,0.0,35,0.00,,,0.00,WeatherTracker,2013-02-06 11:16:00,
2013-02-06 03:21:00,43.7,19.8,17.72,WNW,300,0.0,0.0,38,0.00,,,0.00,WeatherTracker,2013-02-06 11:21:00,
2013-02-06 03:26:00,43.5,19.6,17.72,WNW,300,0.0,0.0,38,0.00,,,0.00,WeatherTracker,2013-02-06 11:26:00,
2013-02-06 03:31:00,43.3,19.5,17.72,WNW,300,0.0,0.0,38,0.00,,,0.00,WeatherTracker,2013-02-06 11:31:00,
2013-02-06 03:36:00,43.0,19.1,17.72,WNW,300,0.0,0.0,38,0.00,,,0.00,WeatherTracker,2013-02-06 11:36:00,
2013-02-06 03:41:00,42.8,19.0,17.72,WNW,300,2.0,4.0,38,0.00,,,0.00,WeatherTracker,2013-02-06 11:41:00,
2013-02-06 03:46:00,42.8,19.0,17.72,WSW,247,3.0,3.0,38,0.00,,,0.00,WeatherTracker,2013-02-06 11:46:00,
2013-02-06 03:51:00,43.0,19.1,17.72,WSW,247,0.0,2.0,38,0.00,,,0.00,WeatherTracker,2013-02-06 11:51:00,
2013-02-06 03:56:00,43.2,19.3,17.72,WSW,247,0.0,0.0,38,0.00,,,0.00,WeatherTracker,2013-02-06 11:56:00,
2013-02-06 04:01:00,43.3,18.8,17.72,WSW,247,0.0,0.0,37,0.00,,,0.00,WeatherTracker,2013-02-06 12:01:00,
2013-02-06 04:06:00,43.5,19.0,17.72,WSW,247,0.0,0.0,37,0.00,,,0.00,WeatherTracker,2013-02-06 12:06:00,
2013-02-06 04:11:00,43.5,19.0,17.72,WSW,247,0.0,0.0,37,0.00,,,0.00,WeatherTracker,2013-02-06 12:11:00,
2013-02-06 04:16:00,43.3,19.5,17.72,WSW,247,0.0,0.0,38,0.00,,,0.00,WeatherTracker,2013-02-06 12:16:00,
2013-02-06 04:21:00,43.2,19.3,17.72,WSW,247,0.0,0.0,38,0.00,,,0.00,WeatherTracker,2013-02-06 12:21:00,
2013-02-06 04:26:00,43.0,19.1,17.72,WSW,247,0.0,0.0,38,0.00,,,0.00,WeatherTracker,2013-02-06 12:26:00,
2013-02-06 04:31:00,43.0,19.1,17.72,WSW,247,0.0,0.0,38,0.00,,,0.00,WeatherTracker,2013-02-06 12:31:00,
2013-02-06 04:36:00,43.0,19.1,17.72,WSW,247,0.0,0.0,38,0.00,,,0.00,WeatherTracker,2013-02-06 12:36:00,
2013-02-06 04:41:00,43.2,19.3,17.72,WSW,247,0.0,0.0,38,0.00,,,0.00,WeatherTracker,2013-02-06 12:41:00,
2013-02-06 04:46:00,43.5,19.6,17.72,WSW,247,0.0,0.0,38,0.00,,,0.00,WeatherTracker,2013-02-06 12:46:00,
2013-02-06 04:51:00,43.7,19.8,17.72,WSW,247,0.0,0.0,38,0.00,,,0.00,WeatherTracker,2013-02-06 12:51:00,
2013-02-06 04:56:00,43.9,19.9,17.72,WSW,247,0.0,0.0,38,0.00,,,0.00,WeatherTracker,2013-02-06 12:56:00,
2013-02-06 05:01:00,43.9,19.9,17.72,WSW,247,0.0,0.0,38,0.00,,,0.00,WeatherTracker,2013-02-06 13:01:00,
2013-02-06 05:06:00,44.1,20.1,17.72,WSW,247,0.0,0.0,38,0.00,,,0.00,WeatherTracker,2013-02-06 13:06:00,
2013-02-06 05:11:00,44.1,20.1,17.72,WSW,247,0.0,0.0,38,0.00,,,0.00,WeatherTracker,2013-02-06 13:11:00,
2013-02-06 05:16:00,43.7,19.8,17.72,WSW,247,0.0,0.0,38,0.00,,,0.00,WeatherTracker,2013-02-06 13:16:00,
2013-02-06 05:21:00,43.5,20.2,17.72,WSW,247,0.0,0.0,39,0.00,,,0.00,WeatherTracker,2013-02-06 13:21:00,
2013-02-06 05:26:00,43.2,19.9,17.72,WSW,247,0.0,0.0,39,0.00,,,0.00,WeatherTracker,2013-02-06 13:26:00,
2013-02-06 05:31:00,42.6,19.4,17.72,WSW,247,0.0,0.0,39,0.00,,,0.00,WeatherTracker,2013-02-06 13:31:00,
2013-02-06 05:36:00,42.1,18.9,17.72,WSW,247,0.0,0.0,39,0.00,,,0.00,WeatherTracker,2013-02-06 13:36:00,
2013-02-06 05:41:00,41.7,19.8,17.72,WSW,247,0.0,0.0,41,0.00,,,0.00,WeatherTracker,2013-02-06 13:41:00,
2013-02-06 05:46:00,41.5,20.2,17.72,WSW,247,0.0,0.0,42,0.00,,,0.00,WeatherTracker,2013-02-06 13:46:00,
2013-02-06 05:51:00,41.5,19.6,17.72,WSW,247,0.0,0.0,41,0.00,,,0.00,WeatherTracker,2013-02-06 13:51:00,
2013-02-06 05:56:00,41.4,19.4,17.72,WSW,247,0.0,0.0,41,0.00,,,0.00,WeatherTracker,2013-02-06 13:56:00,
2013-02-06 06:01:00,41.4,19.4,17.72,WSW,247,0.0,0.0,41,0.00,,,0.00,WeatherTracker,2013-02-06 14:01:00,
2013-02-06 06:06:00,41.2,19.3,17.72,WSW,247,0.0,0.0,41,0.00,,,0.00,WeatherTracker,2013-02-06 14:06:00,
2013-02-06 06:11:00,41.0,19.7,17.72,WSW,247,0.0,0.0,42,0.00,,,0.00,WeatherTracker,2013-02-06 14:11:00,
2013-02-06 06:16:00,40.8,20.1,17.72,WSW,247,0.0,0.0,43,0.00,,,0.00,WeatherTracker,2013-02-06 14:16:00,
2013-02-06 06:21:00,40.6,20.4,17.72,WSW,247,0.0,0.0,44,0.00,,,0.00,WeatherTracker,2013-02-06 14:21:00,
2013-02-06 06:26:00,40.6,20.4,17.72,WSW,247,0.0,0.0,44,0.00,,,0.00,WeatherTracker,2013-02-06 14:26:00,
2013-02-06 06:31:00,40.5,20.3,17.72,WSW,247,0.0,0.0,44,0.00,,,0.00,WeatherTracker,2013-02-06 14:31:00,
2013-02-06 06:36:00,40.5,20.8,17.72,WSW,247,0.0,0.0,45,0.00,,,0.00,WeatherTracker,2013-02-06 14:36:00,
2013-02-06 06:41:00,40.5,20.8,17.72,WSW,247,0.0,0.0,45,0.00,,,0.00,WeatherTracker,2013-02-06 14:41:00,
2013-02-06 06:46:00,40.5,20.8,17.72,WSW,247,0.0,0.0,45,0.00,,,0.00,WeatherTracker,2013-02-06 14:46:00,
2013-02-06 06:51:00,40.5,21.3,17.72,WSW,247,0.0,0.0,46,0.00,,,0.00,WeatherTracker,2013-02-06 14:51:00,
2013-02-06 06:56:00,40.6,21.0,17.72,WSW,247,0.0,0.0,45,0.00,,,0.00,WeatherTracker,2013-02-06 14:56:00,
2013-02-06 07:01:00,40.6,21.5,17.72,WSW,247,0.0,0.0,46,0.00,,,0.00,WeatherTracker,2013-02-06 15:01:00,
2013-02-06 07:06:00,40.8,22.2,17.72,WSW,247,0.0,0.0,47,0.00,,,0.00,WeatherTracker,2013-02-06 15:06:00,
2013-02-06 07:11:00,41.0,22.3,17.72,WSW,247,0.0,0.0,47,0.00,,,0.00,WeatherTracker,2013-02-06 15:11:00,
2013-02-06 07:16:00,41.0,22.3,17.72,WSW,247,0.0,0.0,47,0.00,,,0.00,WeatherTracker,2013-02-06 15:16:00,
2013-02-06 07:21:00,41.0,21.3,17.72,WSW,247,0.0,0.0,45,0.00,,,0.00,WeatherTracker,2013-02-06 15:21:00,
2013-02-06 07:26:00,40.8,22.2,17.72,WSW,247,0.0,0.0,47,0.00,,,0.00,WeatherTracker,2013-02-06 15:26:00,
2013-02-06 07:31:00,40.6,21.5,17.72,WSW,247,0.0,0.0,46,0.00,,,0.00,WeatherTracker,2013-02-06 15:31:00,
2013-02-06 07:36:00,40.6,21.0,17.72,WSW,247,0.0,0.0,45,0.00,,,0.00,WeatherTracker,2013-02-06 15:36:00,
2013-02-06 07:42:00,40.8,21.1,17.72,WSW,247,0.0,0.0,45,0.00,,,0.00,WeatherTracker,2013-02-06 15:42:00,
2013-02-06 07:47:00,41.0,21.3,17.72,WSW,247,0.0,0.0,45,0.00,,,0.00,WeatherTracker,2013-02-06 15:47:00,
2013-02-06 07:52:00,41.2,21.5,17.72,WSW,247,0.0,0.0,45,0.00,,,0.00,WeatherTracker,2013-02-06 15:52:00,
2013-02-06 07:57:00,41.2,20.9,17.72,WSW,247,0.0,0.0,44,0.00,,,0.00,WeatherTracker,2013-02-06 15:57:00,
2013-02-06 08:02:00,41.4,21.1,17.72,WSW,247,0.0,0.0,44,0.00,,,0.00,WeatherTracker,2013-02-06 16:02:00,
2013-02-06 08:07:00,41.5,20.7,17.72,WSW,247,0.0,0.0,43,0.00,,,0.00,WeatherTracker,2013-02-06 16:07:00,
2013-02-06 08:12:00,41.5,20.7,17.72,WSW,247,0.0,0.0,43,0.00,,,0.00,WeatherTracker,2013-02-06 16:12:00,
2013-02-06 08:17:00,41.7,20.9,17.72,WSW,247,0.0,0.0,43,0.00,,,0.00,WeatherTracker,2013-02-06 16:17:00,
2013-02-06 08:22:00,42.1,20.7,17.72,WSW,247,0.0,0.0,42,0.00,,,0.00,WeatherTracker,2013-02-06 16:22:00,
2013-02-06 08:27:00,42.3,20.8,17.72,WSW,247,0.0,0.0,42,0.00,,,0.00,WeatherTracker,2013-02-06 16:27:00,
2013-02-06 08:32:00,42.4,21.0,17.72,WSW,247,0.0,0.0,42,0.00,,,0.00,WeatherTracker,2013-02-06 16:32:00,
2013-02-06 08:37:00,42.6,21.7,17.72,WSW,247,0.0,0.0,43,0.00,,,0.00,WeatherTracker,2013-02-06 16:37:00,
2013-02-06 08:42:00,42.8,20.7,17.72,WSW,247,0.0,0.0,41,0.00,,,0.00,WeatherTracker,2013-02-06 16:42:00,
2013-02-06 08:47:00,43.0,20.9,17.72,WSW,247,0.0,0.0,41,0.00,,,0.00,WeatherTracker,2013-02-06 16:47:00,
2013-02-06 08:52:00,43.0,20.9,17.72,WSW,247,0.0,0.0,41,0.00,,,0.00,WeatherTracker,2013-02-06 16:52:00,
2013-02-06 08:57:00,43.3,21.8,17.72,WSW,247,0.0,0.0,42,0.00,,,0.00,WeatherTracker,2013-02-06 16:57:00,
2013-02-06 09:02:00,43.5,22.0,17.72,WSW,247,0.0,0.0,42,0.00,,,0.00,WeatherTracker,2013-02-06 17:02:00,
2013-02-06 09:07:00,43.7,21.6,17.72,WSW,247,0.0,0.0,41,0.00,,,0.00,WeatherTracker,2013-02-06 17:07:00,
2013-02-06 09:12:00,43.9,22.3,17.72,WSW,247,0.0,0.0,42,0.00,,,0.00,WeatherTracker,2013-02-06 17:12:00,
2013-02-06 09:17:00,44.2,22.6,17.72,WSW,247,0.0,0.0,42,0.00,,,0.00,WeatherTracker,2013-02-06 17:17:00,
2013-02-06 09:22:00,44.6,22.4,17.72,WSW,247,0.0,0.0,41,0.00,,,0.00,WeatherTracker,2013-02-06 17:22:00,
2013-02-06 09:27:00,44.8,22.5,17.72,WSW,247,0.0,0.0,41,0.00,,,0.00,WeatherTracker,2013-02-06 17:27:00,
2013-02-06 09:32:00,45.1,22.9,17.72,WSW,247,0.0,0.0,41,0.00,,,0.00,WeatherTracker,2013-02-06 17:32:00,
2013-02-06 09:37:00,45.3,23.0,17.72,WSW,247,0.0,0.0,41,0.00,,,0.00,WeatherTracker,2013-02-06 17:37:00,
2013-02-06 09:42:00,45.7,23.3,17.72,WSW,247,0.0,0.0,41,0.00,,,0.00,WeatherTracker,2013-02-06 17:42:00,
2013-02-06 09:47:00,46.0,23.7,17.72,WSW,247,0.0,0.0,41,0.00,,,0.00,WeatherTracker,2013-02-06 17:47:00,
2013-02-06 09:52:00,47.3,24.2,17.72,WSW,247,0.0,0.0,40,0.00,,,0.00,WeatherTracker,2013-02-06 17:52:00,
2013-02-06 09:57:00,48.9,25.1,17.72,WSW,247,0.0,0.0,39,0.00,,,0.00,WeatherTracker,2013-02-06 17:57:00,
2013-02-06 10:02:00,48.9,24.4,17.72,WSW,247,0.0,0.0,38,0.00,,,0.00,WeatherTracker,2013-02-06 18:02:00,
2013-02-06 10:07:00,48.7,24.3,17.72,WSW,247,0.0,0.0,38,0.00,,,0.00,WeatherTracker,2013-02-06 18:07:00,
2013-02-06 10:12:00,48.9,24.4,17.72,WSW,247,0.0,0.0,38,0.00,,,0.00,WeatherTracker,2013-02-06 18:12:00,
2013-02-06 10:17:00,48.7,24.3,17.72,WSW,247,0.0,0.0,38,0.00,,,0.00,WeatherTracker,2013-02-06 18:17:00,
2013-02-06 10:22:00,48.9,24.4,17.72,WSW,247,0.0,0.0,38,0.00,,,0.00,WeatherTracker,2013-02-06 18:22:00,
2013-02-06 10:27:00,53.4,27.1,17.72,WSW,247,0.0,0.0,36,0.00,,,0.00,WeatherTracker,2013-02-06 18:27:00,
2013-02-06 10:32:00,56.3,27.6,17.72,WSW,247,0.0,0.0,33,0.00,,,0.00,WeatherTracker,2013-02-06 18:32:00,
2013-02-06 10:37:00,57.0,26.7,17.72,WSW,247,0.0,0.0,31,0.00,,,0.00,WeatherTracker,2013-02-06 18:37:00,
2013-02-06 10:42:00,55.2,24.3,17.72,WSW,247,0.0,0.0,30,0.00,,,0.00,WeatherTracker,2013-02-06 18:42:00,
2013-02-06 10:47:00,54.7,23.9,17.72,WSW,247,0.0,0.0,30,0.00,,,0.00,WeatherTracker,2013-02-06 18:47:00,
2013-02-06 10:52:00,55.2,24.3,17.72,WSW,247,0.0,0.0,30,0.00,,,0.00,WeatherTracker,2013-02-06 18:52:00,
2013-02-06 10:57:00,53.1,23.2,17.72,WSW,247,0.0,0.0,31,0.00,,,0.00,WeatherTracker,2013-02-06 18:57:00,
2013-02-06 11:02:00,51.6,22.7,17.72,WSW,247,0.0,0.0,32,0.00,,,0.00,WeatherTracker,2013-02-06 19:02:00,
2013-02-06 11:08:00,50.7,22.7,17.72,WSW,247,0.0,0.0,33,0.00,,,0.00,WeatherTracker,2013-02-06 19:08:00,
2013-02-06 11:13:00,50.5,23.2,17.72,WSW,247,0.0,0.0,34,0.00,,,0.00,WeatherTracker,2013-02-06 19:13:00,
2013-02-06 11:18:00,50.2,24.3,17.72,WSW,247,0.0,0.0,36,0.00,,,0.00,WeatherTracker,2013-02-06 19:18:00,
2013-02-06 11:23:00,50.0,24.1,17.72,WSW,247,0.0,0.0,36,0.00,,,0.00,WeatherTracker,2013-02-06 19:23:00,
2013-02-06 11:28:00,50.0,24.8,17.72,WSW,247,0.0,0.0,37,0.00,,,0.00,WeatherTracker,2013-02-06 19:28:00,
2013-02-06 11:33:00,50.9,24.9,17.72,WSW,247,0.0,0.0,36,0.00,,,0.00,WeatherTracker,2013-02-06 19:33:00,
2013-02-06 11:38:00,52.5,26.3,17.72,WSW,247,0.0,0.0,36,0.00,,,0.00,WeatherTracker,2013-02-06 19:38:00,
2013-02-06 11:43:00,52.3,26.2,17.72,WSW,247,0.0,0.0,36,0.00,,,0.00,WeatherTracker,2013-02-06 19:43:00,
2013-02-06 11:48:00,51.6,25.5,17.72,WSW,247,0.0,0.0,36,0.00,,,0.00,WeatherTracker,2013-02-06 19:48:00,
2013-02-06 11:53:00,51.1,25.1,17.72,WSW,247,0.0,0.0,36,0.00,,,0.00,WeatherTracker,2013-02-06 19:53:00,
2013-02-06 11:58:00,50.7,24.7,17.72,WSW,247,0.0,0.0,36,0.00,,,0.00,WeatherTracker,2013-02-06 19:58:00,
2013-02-06 12:03:00,50.5,24.6,17.72,WSW,247,0.0,0.0,36,0.00,,,0.00,WeatherTracker,2013-02-06 20:03:00,
2013-02-06 12:08:00,50.5,25.2,17.72,WSW,247,0.0,0.0,37,0.00,,,0.00,WeatherTracker,2013-02-06 20:08:00,
2013-02-06 12:13:00,50.9,25.6,17.72,WSW,247,0.0,0.0,37,0.00,,,0.00,WeatherTracker,2013-02-06 20:13:00,
2013-02-06 12:18:00,51.4,26.0,17.72,WSW,247,0.0,0.0,37,0.00,,,0.00,WeatherTracker,2013-02-06 20:18:00,
2013-02-06 12:23:00,51.4,26.0,17.72,WSW,247,0.0,0.0,37,0.00,,,0.00,WeatherTracker,2013-02-06 20:23:00,
2013-02-06 12:28:00,51.1,25.1,17.72,WSW,247,0.0,0.0,36,0.00,,,0.00,WeatherTracker,2013-02-06 20:28:00,
2013-02-06 12:33:00,51.8,25.7,17.72,WSW,247,0.0,0.0,36,0.00,,,0.00,WeatherTracker,2013-02-06 20:33:00,
2013-02-06 12:38:00,52.9,26.7,17.72,WSW,247,0.0,0.0,36,0.00,,,0.00,WeatherTracker,2013-02-06 20:38:00,
2013-02-06 12:43:00,53.2,26.3,17.72,WSW,247,0.0,0.0,35,0.00,,,0.00,WeatherTracker,2013-02-06 20:43:00,
2013-02-06 12:48:00,54.1,26.4,17.72,WSW,247,0.0,0.0,34,0.00,,,0.00,WeatherTracker,2013-02-06 20:48:00,
2013-02-06 12:53:00,53.6,25.2,17.72,WSW,247,0.0,0.0,33,0.00,,,0.00,WeatherTracker,2013-02-06 20:53:00,
2013-02-06 12:58:00,55.4,26.0,17.72,WSW,247,0.0,0.0,32,0.00,,,0.00,WeatherTracker,2013-02-06 20:58:00,
2013-02-06 13:03:00,56.8,27.3,17.72,WSW,247,0.0,0.0,32,0.00,,,0.00,WeatherTracker,2013-02-06 21:03:00,
2013-02-06 13:08:00,57.0,25.9,17.72,WSW,247,0.0,0.0,30,0.00,,,0.00,WeatherTracker,2013-02-06 21:08:00,
2013-02-06 13:14:00,56.5,26.2,17.72,WSW,247,0.0,0.0,31,0.00,,,0.00,WeatherTracker,2013-02-06 21:14:00,
2013-02-06 13:19:00,55.9,25.7,17.72,WSW,247,0.0,0.0,31,0.00,,,0.00,WeatherTracker,2013-02-06 21:19:00,
2013-02-06 13:24:00,55.0,25.7,17.72,WSW,247,0.0,0.0,32,0.00,,,0.00,WeatherTracker,2013-02-06 21:24:00,
2013-02-06 13:29:00,54.0,24.8,17.72,WSW,247,0.0,0.0,32,0.00,,,0.00,WeatherTracker,2013-02-06 21:29:00,
2013-02-06 13:34:00,53.2,24.2,17.72,WSW,247,0.0,0.0,32,0.00,,,0.00,WeatherTracker,2013-02-06 21:34:00,
2013-02-06 13:39:00,52.7,24.4,17.72,WSW,247,0.0,0.0,33,0.00,,,0.00,WeatherTracker,2013-02-06 21:39:00,
2013-02-06 13:44:00,52.2,23.9,17.72,WSW,247,0.0,0.0,33,0.00,,,0.00,WeatherTracker,2013-02-06 21:44:00,
2013-02-06 13:49:00,51.8,23.6,17.72,WSW,247,0.0,0.0,33,0.00,,,0.00,WeatherTracker,2013-02-06 21:49:00,
2013-02-06 13:54:00,51.8,23.6,17.72,WSW,247,0.0,0.0,33,0.00,,,0.00,WeatherTracker,2013-02-06 21:54:00,
2013-02-06 13:59:00,51.6,24.2,17.72,WSW,247,0.0,0.0,34,0.00,,,0.00,WeatherTracker,2013-02-06 21:59:00,
2013-02-06 14:04:00,51.6,24.9,17.72,WSW,247,0.0,0.0,35,0.00,,,0.00,WeatherTracker,2013-02-06 22:04:00,
2013-02-06 14:09:00,51.4,24.7,17.72,WSW,247,0.0,0.0,35,0.00,,,0.00,WeatherTracker,2013-02-06 22:09:00,
2013-02-06 14:14:00,51.1,22.3,17.72,WSW,247,0.0,0.0,32,0.00,,,0.00,WeatherTracker,2013-02-06 22:14:00,
2013-02-06 14:19:00,50.9,20.6,17.72,NW,308,2.0,3.0,30,0.00,,,0.00,WeatherTracker,2013-02-06 22:19:00,
2013-02-06 14:24:00,50.9,19.8,17.72,NW,308,3.0,4.0,29,0.00,,,0.00,WeatherTracker,2013-02-06 22:24:00,
2013-02-06 14:29:00,50.9,19.8,17.72,NW,308,0.0,0.0,29,0.00,,,0.00,WeatherTracker,2013-02-06 22:29:00,
2013-02-06 14:34:00,50.9,19.8,17.72,NW,308,0.0,0.0,29,0.00,,,0.00,WeatherTracker,2013-02-06 22:34:00,
2013-02-06 14:39:00,50.7,19.6,17.72,NW,308,0.0,0.0,29,0.00,,,0.00,WeatherTracker,2013-02-06 22:39:00,
2013-02-06 14:44:00,50.5,19.5,17.72,NW,308,0.0,0.0,29,0.00,,,0.00,WeatherTracker,2013-02-06 22:44:00,
2013-02-06 14:49:00,50.4,18.5,17.72,NW,308,0.0,0.0,28,0.00,,,0.00,WeatherTracker,2013-02-06 22:49:00,
2013-02-06 14:54:00,50.5,19.5,17.72,NW,308,0.0,0.0,29,0.00,,,0.00,WeatherTracker,2013-02-06 22:54:00,
2013-02-06 14:59:00,50.5,19.5,17.72,NW,308,3.0,4.0,29,0.00,,,0.00,WeatherTracker,2013-02-06 22:59:00,
2013-02-06 15:04:00,50.4,19.3,17.72,NW,308,0.0,4.0,29,0.00,,,0.00,WeatherTracker,2013-02-06 23:04:00,
2013-02-06 15:09:00,50.2,20.0,17.72,West,265,0.0,0.0,30,0.00,,,0.00,WeatherTracker,2013-02-06 23:09:00,
2013-02-06 15:14:00,50.0,19.8,17.72,WNW,299,0.0,3.0,30,0.00,,,0.00,WeatherTracker,2013-02-06 23:14:00,
2013-02-06 15:19:00,50.0,19.8,17.72,WNW,299,0.0,0.0,30,0.00,,,0.00,WeatherTracker,2013-02-06 23:19:00,
2013-02-06 15:24:00,50.0,19.8,17.72,WNW,299,0.0,0.0,30,0.00,,,0.00,WeatherTracker,2013-02-06 23:24:00,
2013-02-06 15:29:00,49.8,21.2,17.72,WNW,299,2.0,3.0,32,0.00,,,0.00,WeatherTracker,2013-02-06 23:29:00,
2013-02-06 15:34:00,49.8,21.9,17.72,WNW,299,0.0,0.0,33,0.00,,,0.00,WeatherTracker,2013-02-06 23:34:00,
2013-02-06 15:39:00,49.3,22.1,17.72,WNW,299,0.0,0.0,34,0.00,,,0.00,WeatherTracker,2013-02-06 23:39:00,
2013-02-06 15:44:00,49.1,22.6,17.72,West,267,2.0,0.0,35,0.00,,,0.00,WeatherTracker,2013-02-06 23:44:00,
2013-02-06 15:49:00,49.1,22.6,17.72,West,267,0.0,0.0,35,0.00,,,0.00,WeatherTracker,2013-02-06 23:49:00,
2013-02-06 15:54:00,49.1,23.3,17.72,West,267,0.0,0.0,36,0.00,,,0.00,WeatherTracker,2013-02-06 23:54:00,
2013-02-06 15:59:00,49.1,23.3,17.72,West,267,0.0,0.0,36,0.00,,,0.00,WeatherTracker,2013-02-06 23:59:00,
2013-02-06 16:04:00,48.9,23.8,17.72,West,267,0.0,0.0,37,0.00,,,0.00,WeatherTracker,2013-02-07 00:04:00,
2013-02-06 16:09:00,48.9,23.8,17.72,West,267,0.0,0.0,37,0.00,,,0.00,WeatherTracker,2013-02-07 00:09:00,
2013-02-06 16:14:00,48.9,23.8,17.72,West,267,2.0,3.0,37,0.00,,,0.00,WeatherTracker,2013-02-07 00:14:00,
2013-02-06 16:19:00,48.6,23.5,17.72,West,259,3.0,3.0,37,0.00,,,0.00,WeatherTracker,2013-02-07 00:19:00,
2013-02-06 16:24:00,48.4,24.0,17.72,West,259,0.0,0.0,38,0.00,,,0.00,WeatherTracker,2013-02-07 00:24:00,
2013-02-06 16:29:00,48.2,23.8,17.72,West,259,2.0,3.0,38,0.00,,,0.00,WeatherTracker,2013-02-07 00:29:00,
2013-02-06 16:34:00,47.8,24.1,17.72,West,259,2.0,0.0,39,0.00,,,0.00,WeatherTracker,2013-02-07 00:34:00,
2013-02-06 16:39:00,47.8,24.1,17.72,West,259,0.0,0.0,39,0.00,,,0.00,WeatherTracker,2013-02-07 00:39:00,
2013-02-06 16:44:00,47.8,24.7,17.72,West,259,2.0,2.0,40,0.00,,,0.00,WeatherTracker,2013-02-07 00:44:00,
2013-02-06 16:49:00,47.7,24.5,17.72,West,259,3.0,3.0,40,0.00,,,0.00,WeatherTracker,2013-02-07 00:49:00,
2013-02-06 16:54:00,47.5,24.4,17.72,West,259,3.0,4.0,40,0.00,,,0.00,WeatherTracker,2013-02-07 00:54:00,
2013-02-06 16:59:00,47.3,24.2,17.72,West,259,3.0,3.0,40,0.00,,,0.00,WeatherTracker,2013-02-07 00:59:00,
2013-02-06 17:04:00,47.5,24.4,17.72,SSW,212,0.0,0.0,40,0.00,,,0.00,WeatherTracker,2013-02-07 01:04:00,
2013-02-06 17:09:00,47.5,24.4,17.72,SSW,212,0.0,0.0,40,0.00,,,0.00,WeatherTracker,2013-02-07 01:09:00,
2013-02-06 17:14:00,47.3,24.2,17.72,SSW,212,0.0,0.0,40,0.00,,,0.00,WeatherTracker,2013-02-07 01:14:00,
2013-02-06 17:19:00,47.3,24.8,17.72,WSW,248,3.0,3.0,41,0.00,,,0.00,WeatherTracker,2013-02-07 01:19:00,
2013-02-06 17:24:00,47.3,24.8,17.72,WSW,258,3.0,3.0,41,0.00,,,0.00,WeatherTracker,2013-02-07 01:24:00,
2013-02-06 17:29:00,47.3,24.8,17.72,WSW,258,0.0,3.0,41,0.00,,,0.00,WeatherTracker,2013-02-07 01:29:00,
2013-02-06 17:34:00,47.1,24.6,17.72,WSW,258,0.0,3.0,41,0.00,,,0.00,WeatherTracker,2013-02-07 01:34:00,
2013-02-06 17:39:00,47.1,25.2,17.72,WSW,242,3.0,3.0,42,0.00,,,0.00,WeatherTracker,2013-02-07 01:39:00,
2013-02-06 17:44:00,47.3,24.8,17.72,WSW,240,3.0,3.0,41,0.00,,,0.00,WeatherTracker,2013-02-07 01:44:00,
2013-02-06 17:49:00,46.9,24.5,17.72,WSW,246,3.0,4.0,41,0.00,,,0.00,WeatherTracker,2013-02-07 01:49:00,
2013-02-06 17:54:00,46.8,24.3,17.72,SSW,208,3.0,4.0,41,0.00,,,0.00,WeatherTracker,2013-02-07 01:54:00,
2013-02-06 18:00:00,46.9,24.5,17.72,WSW,248,3.0,3.0,41,0.00,,,0.00,WeatherTracker,2013-02-07 02:00:00,
2013-02-06 18:05:00,46.8,24.3,17.72,WSW,256,2.0,3.0,41,0.00,,,0.00,WeatherTracker,2013-02-07 02:05:00,
2013-02-06 18:10:00,46.4,24.6,17.72,WSW,252,3.0,3.0,42,0.00,,,0.00,WeatherTracker,2013-02-07 02:10:00,
2013-02-06 18:15:00,46.4,24.6,17.72,WSW,252,3.0,4.0,42,0.00,,,0.00,WeatherTracker,2013-02-07 02:15:00,
2013-02-06 18:20:00,46.4,24.0,17.72,West,259,4.0,4.0,41,0.00,,,0.00,WeatherTracker,2013-02-07 02:20:00,
2013-02-06 18:25:00,46.4,24.0,17.72,WSW,250,4.0,4.0,41,0.00,,,0.00,WeatherTracker,2013-02-07 02:25:00,
2013-02-06 18:30:00,46.4,24.0,17.72,WSW,252,3.0,3.0,41,0.00,,,0.00,WeatherTracker,2013-02-07 02:30:00,
2013-02-06 18:35:00,46.0,24.2,17.72,WSW,252,3.0,3.0,42,0.00,,,0.00,WeatherTracker,2013-02-07 02:35:00,
2013-02-06 18:40:00,46.0,24.2,17.72,West,272,3.0,3.0,42,0.00,,,0.00,WeatherTracker,2013-02-07 02:40:00,
2013-02-06 18:45:00,46.0,24.2,17.72,West,272,3.0,4.0,42,0.00,,,0.00,WeatherTracker,2013-02-07 02:45:00,
2013-02-06 18:50:00,46.0,24.2,17.72,WSW,254,0.0,2.0,42,0.00,,,0.00,WeatherTracker,2013-02-07 02:50:00,
2013-02-06 18:55:00,46.0,24.2,17.72,WSW,254,3.0,3.0,42,0.00,,,0.00,WeatherTracker,2013-02-07 02:55:00,
2013-02-06 19:00:00,46.0,24.8,17.72,West,266,3.0,3.0,43,0.00,,,0.00,WeatherTracker,2013-02-07 03:00:00,
2013-02-06 19:05:00,46.0,24.8,17.72,WSW,242,3.0,3.0,43,0.00,,,0.00,WeatherTracker,2013-02-07 03:05:00,
2013-02-06 19:10:00,46.0,24.8,17.72,WSW,237,3.0,3.0,43,0.00,,,0.00,WeatherTracker,2013-02-07 03:10:00,
2013-02-06 19:15:00,46.0,24.2,17.72,West,272,0.0,3.0,42,0.00,,,0.00,WeatherTracker,2013-02-07 03:15:00,
2013-02-06 19:20:00,46.0,23.7,17.72,West,260,4.0,4.0,41,0.00,,,0.00,WeatherTracker,2013-02-07 03:20:00,
2013-02-06 19:25:00,45.9,23.5,17.72,West,269,3.0,3.0,41,0.00,,,0.00,WeatherTracker,2013-02-07 03:25:00,
2013-02-06 19:30:00,45.7,23.3,17.72,West,272,3.0,3.0,41,0.00,,,0.00,WeatherTracker,2013-02-07 03:30:00,
2013-02-06 19:35:00,45.5,23.2,17.72,West,265,3.0,3.0,41,0.00,,,0.00,WeatherTracker,2013-02-07 03:35:00,
2013-02-06 19:40:00,45.3,23.0,17.72,West,259,3.0,4.0,41,0.00,,,0.00,WeatherTracker,2013-02-07 03:40:00,
2013-02-06 19:45:00,45.1,22.9,17.72,West,270,2.0,3.0,41,0.00,,,0.00,WeatherTracker,2013-02-07 03:45:00,
2013-02-06 19:50:00,45.0,23.3,17.72,West,281,3.0,3.0,42,0.00,,,0.00,WeatherTracker,2013-02-07 03:50:00,
2013-02-06 19:55:00,45.0,23.3,17.72,West,273,3.0,4.0,42,0.00,,,0.00,WeatherTracker,2013-02-07 03:55:00,
2013-02-06 20:00:00,45.0,23.3,17.72,West,267,4.0,4.0,42,0.00,,,0.00,WeatherTracker,2013-02-07 04:00:00,
2013-02-06 20:05:00,45.1,23.4,17.72,WNW,289,4.0,4.0,42,0.00,,,0.00,WeatherTracker,2013-02-07 04:05:00,
2013-02-06 20:10:00,45.1,22.9,17.72,West,272,3.0,3.0,41,0.00,,,0.00,WeatherTracker,2013-02-07 04:10:00,
2013-02-06 20:15:00,45.0,22.7,17.72,West,280,4.0,4.0,41,0.00,,,0.00,WeatherTracker,2013-02-07 04:15:00,
2013-02-06 20:20:00,44.8,22.5,17.72,West,265,4.0,4.0,41,0.00,,,0.00,WeatherTracker,2013-02-07 04:20:00,
2013-02-06 20:25:00,44.4,22.2,17.72,WSW,252,4.0,4.0,41,0.00,,,0.00,WeatherTracker,2013-02-07 04:25:00,
2013-02-06 20:30:00,44.2,22.0,17.72,West,268,4.0,4.0,41,0.00,,,0.00,WeatherTracker,2013-02-07 04:30:00,
2013-02-06 20:36:00,44.1,21.9,17.72,WSW,249,3.0,5.0,41,0.00,,,0.00,WeatherTracker,2013-02-07 04:36:00,
2013-02-06 20:41:00,43.9,21.7,17.72,WNW,291,3.0,3.0,41,0.00,,,0.00,WeatherTracker,2013-02-07 04:41:00,
2013-02-06 20:46:00,44.1,22.5,17.72,NW,307,3.0,3.0,42,0.00,,,0.00,WeatherTracker,2013-02-07 04:46:00,
2013-02-06 20:51:00,44.1,22.5,17.72,WNW,292,3.0,4.0,42,0.00,,,0.00,WeatherTracker,2013-02-07 04:51:00,
2013-02-06 20:56:00,44.1,21.9,17.72,West,268,2.0,3.0,41,0.00,,,0.00,WeatherTracker,2013-02-07 04:56:00,
2013-02-06 21:00:00,44.1,21.9,17.72,West,270,3.0,4.0,41,0.00,,,0.00,WeatherTracker,2013-02-07 05:00:00,
2013-02-06 21:01:00,44.1,21.9,17.72,WNW,283,4.0,4.0,41,0.00,,,0.00,WeatherTracker,2013-02-07 05:01:00,
2013-02-06 21:06:00,43.7,21.6,17.72,NW,311,3.0,5.0,41,0.00,,,0.00,WeatherTracker,2013-02-07 05:06:00,
2013-02-06 21:11:00,43.5,21.4,17.72,West,267,4.0,6.0,41,0.00,,,0.00,WeatherTracker,2013-02-07 05:11:00,
2013-02-06 21:16:00,43.3,20.7,17.72,West,275,3.0,3.0,40,0.00,,,0.00,WeatherTracker,2013-02-07 05:16:00,
2013-02-06 21:21:00,43.3,20.7,17.72,NW,304,2.0,3.0,40,0.00,,,0.00,WeatherTracker,2013-02-07 05:21:00,
2013-02-06 21:26:00,43.2,20.5,17.72,NW,309,4.0,5.0,40,0.00,,,0.00,WeatherTracker,2013-02-07 05:26:00,
2013-02-06 21:31:00,43.0,20.3,17.72,NW,315,4.0,5.0,40,0.00,,,0.00,WeatherTracker,2013-02-07 05:31:00,
2013-02-06 21:36:00,43.0,20.3,17.72,NW,318,3.0,3.0,40,0.00,,,0.00,WeatherTracker,2013-02-07 05:36:00,
2013-02-06 21:41:00,43.0,20.3,17.72,North,350,3.0,4.0,40,0.00,,,0.00,WeatherTracker,2013-02-07 05:41:00,
2013-02-06 21:46:00,42.8,20.2,17.72,West,277,3.0,3.0,40,0.00,,,0.00,WeatherTracker,2013-02-07 05:46:00,
2013-02-06 21:51:00,42.8,20.2,17.72,WNW,287,3.0,4.0,40,0.00,,,0.00,WeatherTracker,2013-02-07 05:51:00,
2013-02-06 21:56:00,42.8,20.2,17.72,NW,307,3.0,4.0,40,0.00,,,0.00,WeatherTracker,2013-02-07 05:56:00,
2013-02-06 22:01:00,42.6,20.6,17.72,NW,310,4.0,4.0,41,0.00,,,0.00,WeatherTracker,2013-02-07 06:01:00,
2013-02-06 22:06:00,42.4,20.4,17.72,NW,308,4.0,4.0,41,0.00,,,0.00,WeatherTracker,2013-02-07 06:06:00,
2013-02-06 22:11:00,42.4,20.4,17.72,WNW,302,4.0,5.0,41,0.00,,,0.00,WeatherTracker,2013-02-07 06:11:00,
2013-02-06 22:16:00,42.4,20.4,17.72,WNW,297,4.0,4.0,41,0.00,,,0.00,WeatherTracker,2013-02-07 06:16:00,
2013-02-06 22:21:00,42.8,20.2,17.72,NW,315,5.0,5.0,40,0.00,,,0.00,WeatherTracker,2013-02-07 06:21:00,
2013-02-06 22:26:00,43.0,20.3,17.72,West,281,4.0,5.0,40,0.00,,,0.00,WeatherTracker,2013-02-07 06:26:00,
2013-02-06 22:31:00,42.8,20.2,17.72,NW,316,2.0,2.0,40,0.00,,,0.00,WeatherTracker,2013-02-07 06:31:00,
2013-02-06 22:36:00,42.8,20.2,17.72,NW,306,4.0,4.0,40,0.00,,,0.00,WeatherTracker,2013-02-07 06:36:00,
2013-02-06 22:41:00,42.8,20.2,17.72,NW,314,2.0,3.0,40,0.00,,,0.00,WeatherTracker,2013-02-07 06:41:00,
2013-02-06 22:46:00,42.6,20.0,17.72,NNW,327,4.0,4.0,40,0.00,,,0.00,WeatherTracker,2013-02-07 06:46:00,
2013-02-06 22:51:00,42.6,20.0,17.72,NNW,327,0.0,4.0,40,0.00,,,0.00,WeatherTracker,2013-02-07 06:51:00,
2013-02-06 22:56:00,42.3,20.3,17.72,NNW,327,0.0,0.0,41,0.00,,,0.00,WeatherTracker,2013-02-07 06:56:00,
2013-02-06 23:01:00,41.9,19.9,17.72,NNW,327,0.0,0.0,41,0.00,,,0.00,WeatherTracker,2013-02-07 07:01:00,
2013-02-06 23:06:00,41.0,20.2,17.72,NNW,327,0.0,0.0,43,0.00,,,0.00,WeatherTracker,2013-02-07 07:06:00,
2013-02-06 23:11:00,40.5,20.8,17.72,NNW,327,0.0,0.0,45,0.00,,,0.00,WeatherTracker,2013-02-07 07:11:00,
2013-02-06 23:16:00,40.3,21.2,17.72,NNW,327,0.0,0.0,46,0.00,,,0.00,WeatherTracker,2013-02-07 07:16:00,
2013-02-06 23:21:00,40.3,21.7,17.72,NNW,327,0.0,0.0,47,0.00,,,0.00,WeatherTracker,2013-02-07 07:21:00,
2013-02-06 23:26:00,40.5,21.8,17.72,West,264,0.0,0.0,47,0.00,,,0.00,WeatherTracker,2013-02-07 07:26:00,
2013-02-06 23:31:00,40.6,22.0,17.72,SW,235,2.0,4.0,47,0.00,,,0.00,WeatherTracker,2013-02-07 07:31:00,
2013-02-06 23:36:00,41.0,21.8,17.72,WNW,296,0.0,2.0,46,0.00,,,0.00,WeatherTracker,2013-02-07 07:36:00,
2013-02-06 23:41:00,41.4,22.7,17.72,West,261,3.0,4.0,47,0.00,,,0.00,WeatherTracker,2013-02-07 07:41:00,
2013-02-06 23:46:00,41.7,24.0,17.72,WNW,288,3.0,4.0,49,0.00,,,0.00,WeatherTracker,2013-02-07 07:46:00,
2013-02-06 23:51:00,41.9,24.1,17.72,SW,217,3.0,4.0,49,0.00,,,0.00,WeatherTracker,2013-02-07 07:51:00,
2013-02-06 23:56:00,42.1,24.8,17.72,WNW,298,3.0,3.0,50,0.00,,,0.00,WeatherTracker,2013-02-07 07:56:00,